Time;durP1;ratioP1;P1;durP2;ratioP2;P2;SDS_P1;SDS_P2;PMS_P1;PMS_P2;Temp;Humidity;BMP_temperature;BMP_pressure;BME280_temperature;BME280_humidity;BME280_pressure;Samples;Min_cycle;Max_cycle;Signal;HPM_P1;HPM_P2
2021/12/31 00:02:00;;;;;;;;;2.67;2.00;;;;;17.52;66.51;101719.38;5050606;28;8828;-59
2021/12/31 00:04:26;;;;;;;;;2.00;2.00;;;;;17.52;67.00;101730.84;5050369;28;8816;-59
2021/12/31 00:06:51;;;;;;;;;4.33;3.33;;;;;17.54;66.90;101730.84;5051206;28;9146;-58
2021/12/31 00:09:16;;;;;;;;;1.33;1.33;;;;;17.52;66.82;101727.31;5050946;28;8777;-58
2021/12/31 00:11:41;;;;;;;;;3.00;3.00;;;;;17.52;66.67;101722.91;5049854;28;8861;-58
2021/12/31 00:14:07;;;;;;;;;1.67;1.67;;;;;17.49;66.85;101722.00;5050829;28;8804;-59
2021/12/31 00:16:32;;;;;;;;;2.00;2.00;;;;;17.54;66.61;101731.75;5050757;28;8873;-59
2021/12/31 00:19:00;;;;;;;;;1.33;1.33;;;;;17.55;66.67;101716.75;5050160;28;8965;-58
2021/12/31 00:21:32;;;;;;;;;1.67;1.00;;;;;17.51;66.82;101717.63;5051148;28;8811;-59
2021/12/31 00:23:57;;;;;;;;;1.33;1.33;;;;;17.49;66.77;101724.66;5050013;28;9174;-59
2021/12/31 00:26:22;;;;;;;;;4.67;3.33;;;;;17.53;66.66;101723.81;5051135;28;9101;-58
2021/12/31 00:28:47;;;;;;;;;2.00;2.00;;;;;17.53;66.61;101723.81;5050230;28;8810;-58
2021/12/31 00:31:13;;;;;;;;;1.67;1.67;;;;;17.51;66.75;101721.13;5049914;28;8931;-59
2021/12/31 00:33:38;;;;;;;;;3.00;2.00;;;;;17.53;66.49;101724.69;5050945;28;8780;-58
2021/12/31 00:36:03;;;;;;;;;2.00;2.00;;;;;17.53;66.51;101721.16;5050288;28;8811;-58
2021/12/31 00:38:30;;;;;;;;;1.67;1.67;;;;;17.51;66.60;101725.56;5050171;28;8838;-59
2021/12/31 00:40:55;;;;;;;;;3.00;2.00;;;;;17.53;66.58;101721.16;5050527;28;9195;-58
2021/12/31 00:43:20;;;;;;;;;3.00;3.00;;;;;17.53;66.82;101714.13;5050003;28;8788;-59
2021/12/31 00:45:45;;;;;;;;;2.00;2.00;;;;;17.57;66.49;101725.63;5049900;28;8907;-58
2021/12/31 00:48:12;;;;;;;;;2.00;2.00;;;;;17.50;66.59;101729.94;5050638;28;8788;-58
2021/12/31 00:50:38;;;;;;;;;1.00;1.00;;;;;17.55;66.78;101727.31;5050495;28;8812;-58
2021/12/31 00:53:05;;;;;;;;;3.00;1.33;;;;;17.52;66.59;101720.28;5049695;28;9095;-59
2021/12/31 00:55:30;;;;;;;;;1.67;1.00;;;;;17.57;66.70;101736.19;5050745;28;9187;-58
2021/12/31 00:57:59;;;;;;;;;3.00;3.00;;;;;17.55;66.28;101730.84;5049960;28;9205;-59
2021/12/31 01:00:24;;;;;;;;;1.00;1.00;;;;;17.54;66.57;101731.75;5050001;28;8858;-58
2021/12/31 01:02:50;;;;;;;;;1.00;1.00;;;;;17.49;66.54;101730.81;5050086;28;9171;-59
2021/12/31 01:05:19;;;;;;;;;1.00;1.00;;;;;17.52;66.68;101744.03;5050469;28;8788;-58
2021/12/31 01:07:44;;;;;;;;;2.00;2.00;;;;;17.49;66.73;101730.81;5049867;28;8780;-59
2021/12/31 01:10:13;;;;;;;;;1.33;1.33;;;;;17.54;66.76;101744.06;5050556;28;9863;-59
2021/12/31 01:12:39;;;;;;;;;1.00;1.00;;;;;17.53;66.44;101750.22;5050438;28;8796;-59
2021/12/31 01:15:10;;;;;;;;;4.00;2.00;;;;;17.53;66.47;101745.81;5050085;28;9182;-58
2021/12/31 01:20:20;;;;;;;;;2.00;1.00;;;;;17.50;66.67;101742.25;5049713;28;8935;-59
2021/12/31 01:22:46;;;;;;;;;3.00;3.00;;;;;17.52;66.55;101741.41;5051937;28;8924;-58
2021/12/31 01:25:12;;;;;;;;;2.00;2.00;;;;;17.51;66.74;101738.75;5053972;28;9174;-58
2021/12/31 01:27:40;;;;;;;;;3.00;2.00;;;;;17.57;66.22;101747.63;5053208;28;8780;-60
2021/12/31 01:30:08;;;;;;;;;2.67;2.67;;;;;17.58;66.52;101746.78;5054108;28;8948;-59
2021/12/31 01:32:34;;;;;;;;;2.67;2.67;;;;;17.55;66.53;101749.34;5053652;28;8945;-59
2021/12/31 01:35:00;;;;;;;;;5.00;4.00;;;;;17.54;66.59;101754.63;5053110;28;9033;-59
2021/12/31 01:37:25;;;;;;;;;1.00;1.00;;;;;17.52;66.46;101751.97;5053689;28;9645;-59
2021/12/31 01:39:51;;;;;;;;;2.00;2.00;;;;;17.54;66.39;101751.97;5053176;28;8776;-59
2021/12/31 01:42:21;;;;;;;;;0.67;0.67;;;;;17.52;66.44;101756.34;5053106;28;8796;-59
2021/12/31 01:44:57;;;;;;;;;2.00;2.00;;;;;17.50;66.53;101758.09;5053772;28;8899;-58
2021/12/31 01:47:33;;;;;;;;;2.67;1.67;;;;;17.49;66.72;101751.06;5053662;28;9028;-58
2021/12/31 01:50:01;;;;;;;;;1.00;1.00;;;;;17.48;66.88;101752.81;5053107;28;8964;-59
2021/12/31 01:52:26;;;;;;;;;2.00;2.00;;;;;17.49;66.52;101748.41;5053539;28;9761;-59
2021/12/31 01:54:52;;;;;;;;;2.00;2.00;;;;;17.50;66.60;101748.44;5052898;28;9012;-59
2021/12/31 01:57:18;;;;;;;;;1.67;1.67;;;;;17.49;66.86;101758.97;5053149;28;8781;-59
2021/12/31 01:59:44;;;;;;;;;2.33;2.33;;;;;17.50;66.78;101745.78;5053515;28;8768;-59
2021/12/31 02:02:10;;;;;;;;;3.00;2.00;;;;;17.52;66.67;101740.50;5053315;28;9107;-58
2021/12/31 02:04:39;;;;;;;;;2.00;2.00;;;;;17.52;66.60;101751.06;5052924;28;8785;-58
2021/12/31 02:07:05;;;;;;;;;1.00;1.00;;;;;17.55;66.83;101743.16;5053474;28;8772;-58
2021/12/31 02:09:35;;;;;;;;;3.00;2.00;;;;;17.50;66.59;101751.06;5052636;28;9122;-58
2021/12/31 02:12:01;;;;;;;;;1.00;1.00;;;;;17.54;66.49;101739.66;5053147;28;9047;-58
2021/12/31 02:14:27;;;;;;;;;2.00;2.00;;;;;17.50;66.57;101745.78;5053303;28;9146;-59
2021/12/31 02:16:52;;;;;;;;;1.33;1.33;;;;;17.54;66.58;101738.78;5052385;28;9918;-58
2021/12/31 02:19:27;;;;;;;;;1.00;1.00;;;;;17.51;66.37;101742.25;5053217;28;9250;-58
2021/12/31 02:21:52;;;;;;;;;1.67;1.67;;;;;17.51;66.79;101736.97;5052536;28;8902;-58
2021/12/31 02:24:19;;;;;;;;;2.00;2.00;;;;;17.51;66.47;101744.03;5052703;28;9278;-58
2021/12/31 02:26:44;;;;;;;;;2.00;2.00;;;;;17.43;66.67;101733.41;5053110;28;8875;-59
2021/12/31 02:29:09;;;;;;;;;1.33;1.33;;;;;17.50;66.79;101742.25;5052884;28;9195;-59
2021/12/31 02:31:35;;;;;;;;;3.00;3.00;;;;;17.52;66.51;101741.41;5052555;28;8812;-58
2021/12/31 02:34:00;;;;;;;;;2.00;2.00;;;;;17.50;66.76;101745.78;5052497;28;8873;-58
2021/12/31 02:36:25;;;;;;;;;4.67;3.33;;;;;17.50;66.63;101742.25;5052481;28;8950;-58
2021/12/31 02:38:56;;;;;;;;;2.00;2.00;;;;;17.49;66.41;101737.84;5052190;28;8776;-58
2021/12/31 02:41:22;;;;;;;;;2.00;2.00;;;;;17.54;66.52;101739.66;5052733;28;8768;-58
2021/12/31 02:43:47;;;;;;;;;2.00;2.00;;;;;17.53;66.42;101737.88;5052385;28;9261;-58
2021/12/31 02:46:13;;;;;;;;;1.00;1.00;;;;;17.52;66.75;101744.03;5052328;28;8783;-58
2021/12/31 02:48:38;;;;;;;;;3.00;2.00;;;;;17.50;66.42;101742.25;5052636;28;8845;-58
2021/12/31 02:51:06;;;;;;;;;2.00;2.00;;;;;17.49;66.41;101744.00;5051999;28;8886;-58
2021/12/31 02:53:37;;;;;;;;;3.00;2.00;;;;;17.51;66.60;101742.25;5052128;28;9539;-58
2021/12/31 02:56:09;;;;;;;;;3.33;2.33;;;;;17.53;66.36;101734.38;5052289;28;9000;-58
2021/12/31 02:58:36;;;;;;;;;2.00;2.00;;;;;17.52;66.37;101751.06;5052066;28;9694;-57
2021/12/31 03:01:04;;;;;;;;;2.00;2.00;;;;;17.49;66.84;101748.41;5051691;28;9806;-58
2021/12/31 03:03:32;;;;;;;;;1.67;1.67;;;;;17.47;66.54;101734.31;5052441;28;9274;-58
2021/12/31 03:05:58;;;;;;;;;1.33;1.33;;;;;17.48;66.40;101747.53;5051382;28;9168;-58
2021/12/31 03:08:28;;;;;;;;;2.00;2.00;;;;;17.53;66.60;101745.81;5052465;28;9113;-59
2021/12/31 03:10:56;;;;;;;;;1.33;1.33;;;;;17.52;66.62;101732.59;5051695;28;9122;-58
2021/12/31 03:13:23;;;;;;;;;2.00;1.00;;;;;17.52;66.44;101722.91;5051715;28;9035;-58
2021/12/31 03:15:50;;;;;;;;;0.00;0.00;;;;;17.53;66.44;101723.81;5051732;28;9216;-59
2021/12/31 03:18:18;;;;;;;;;2.00;1.00;;;;;17.51;66.62;101722.91;5051769;28;9054;-58
2021/12/31 03:20:57;;;;;;;;;2.00;2.00;;;;;17.54;66.56;101704.44;5051344;28;9013;-59
2021/12/31 03:23:22;;;;;;;;;1.00;1.00;;;;;17.49;66.73;101717.63;5051978;28;9172;-59
2021/12/31 03:25:47;;;;;;;;;1.00;1.00;;;;;17.48;66.63;101723.75;5051300;28;9021;-59
2021/12/31 03:28:13;;;;;;;;;1.00;1.00;;;;;17.53;66.31;101721.16;5051135;28;8772;-59
2021/12/31 03:30:38;;;;;;;;;1.00;1.00;;;;;17.29;66.02;101683.16;5051840;28;8807;-59
2021/12/31 03:33:03;;;;;;;;;1.00;1.00;;;;;17.52;66.41;101716.75;5051305;28;8838;-59
2021/12/31 03:35:29;;;;;;;;;1.33;1.33;;;;;17.45;66.44;101720.22;5051094;28;8784;-59
2021/12/31 03:37:55;;;;;;;;;2.00;2.00;;;;;17.49;66.64;101719.38;5051410;28;8796;-59
2021/12/31 03:40:21;;;;;;;;;2.00;2.00;;;;;17.51;66.56;101715.84;5051794;28;8788;-58
2021/12/31 03:42:46;;;;;;;;;2.67;2.00;;;;;17.51;66.57;101710.56;5050647;28;11479;-59
2021/12/31 03:45:11;;;;;;;;;2.00;2.00;;;;;17.51;66.48;101715.84;5051148;28;8776;-58
2021/12/31 03:47:37;;;;;;;;;1.33;1.33;;;;;17.51;66.30;101709.72;5051494;28;8853;-58
2021/12/31 03:50:03;;;;;;;;;3.00;3.00;;;;;17.46;66.78;101717.59;5050429;28;8792;-59
2021/12/31 03:52:28;;;;;;;;;2.00;2.00;;;;;17.46;66.55;101714.06;5051488;28;8914;-59
2021/12/31 03:54:53;;;;;;;;;1.67;1.67;;;;;17.49;66.82;101714.97;5050452;28;8796;-59
2021/12/31 03:57:18;;;;;;;;;3.00;2.00;;;;;17.47;66.88;101718.50;5050589;28;8780;-59
2021/12/31 03:59:44;;;;;;;;;2.00;2.00;;;;;17.42;66.67;101718.44;5050982;28;8776;-59
2021/12/31 04:02:09;;;;;;;;;2.00;2.00;;;;;17.52;66.33;101722.91;5050260;28;8808;-58
2021/12/31 04:04:34;;;;;;;;;0.33;0.33;;;;;17.47;66.77;101718.50;5051377;28;8863;-59
2021/12/31 04:07:02;;;;;;;;;2.00;2.00;;;;;17.53;66.71;101718.53;5050638;28;9529;-58
2021/12/31 04:09:27;;;;;;;;;2.00;2.00;;;;;17.48;66.71;101720.22;5050817;28;8781;-59
2021/12/31 04:11:53;;;;;;;;;1.67;1.67;;;;;17.47;66.46;101721.13;5050632;28;10046;-59
2021/12/31 04:14:18;;;;;;;;;1.33;1.00;;;;;17.47;66.48;101716.69;5050656;28;8783;-58
2021/12/31 04:16:43;;;;;;;;;1.00;1.00;;;;;17.47;66.54;101726.41;5050437;28;8776;-59
2021/12/31 04:19:08;;;;;;;;;1.33;1.33;;;;;17.48;66.66;101713.19;5050943;28;8769;-58
2021/12/31 04:21:34;;;;;;;;;1.00;1.00;;;;;17.47;66.60;101715.84;5050078;28;8815;-58
2021/12/31 04:24:14;;;;;;;;;1.00;1.00;;;;;17.51;66.31;101705.28;5050306;28;8803;-59
2021/12/31 04:26:40;;;;;;;;;1.00;1.00;;;;;17.44;66.54;101692.03;5051023;28;8772;-59
2021/12/31 04:29:05;;;;;;;;;1.00;1.00;;;;;17.45;66.55;101696.44;5050709;28;9139;-59
2021/12/31 04:31:31;;;;;;;;;4.00;3.00;;;;;17.48;66.63;101688.56;5050361;28;8901;-59
2021/12/31 04:33:58;;;;;;;;;2.67;2.67;;;;;17.48;66.75;101688.56;5050467;28;8856;-59
2021/12/31 04:36:23;;;;;;;;;1.67;1.67;;;;;17.44;66.53;101684.13;5048473;28;8861;-58
2021/12/31 04:38:49;;;;;;;;;2.67;1.00;;;;;17.49;66.33;101671.84;5049741;28;9270;-58
2021/12/31 04:41:14;;;;;;;;;2.00;2.00;;;;;17.50;66.32;101689.47;5050986;28;8910;-58
2021/12/31 04:43:39;;;;;;;;;1.00;1.00;;;;;17.45;66.46;101676.22;5050182;28;8796;-59
2021/12/31 04:46:04;;;;;;;;;2.00;2.00;;;;;17.47;66.44;101666.53;5050446;28;8806;-58
2021/12/31 04:48:30;;;;;;;;;2.00;0.33;;;;;17.45;66.38;101668.31;5050516;28;8784;-59
2021/12/31 04:50:55;;;;;;;;;3.00;2.00;;;;;17.50;66.50;101656.03;5050285;28;8820;-60
2021/12/31 04:53:20;;;;;;;;;2.00;2.00;;;;;17.47;66.35;101647.22;5050387;28;8776;-59
2021/12/31 04:55:46;;;;;;;;;3.00;2.00;;;;;17.45;66.82;101647.19;5050494;28;8815;-60
2021/12/31 04:58:14;;;;;;;;;1.67;1.00;;;;;17.45;66.77;101648.94;5053103;28;8764;-59
2021/12/31 05:00:39;;;;;;;;;1.00;1.00;;;;;17.43;66.63;101646.31;5054475;28;8787;-59
2021/12/31 05:03:08;;;;;;;;;2.00;2.00;;;;;17.47;66.70;101649.84;5054528;28;9085;-59
2021/12/31 05:05:34;;;;;;;;;1.00;1.00;;;;;17.41;66.88;101648.03;5054217;28;9527;-59
2021/12/31 05:08:02;;;;;;;;;2.00;2.00;;;;;17.41;66.93;101645.41;5054412;28;8951;-58
2021/12/31 05:10:31;;;;;;;;;2.00;2.00;;;;;17.40;66.95;101648.91;5053901;28;9663;-58
2021/12/31 05:12:57;;;;;;;;;1.00;1.00;;;;;17.39;66.64;101653.31;5053538;28;9202;-57
2021/12/31 05:15:27;;;;;;;;;1.00;1.00;;;;;17.40;66.83;101654.19;5054553;28;8940;-58
2021/12/31 05:17:55;;;;;;;;;2.00;2.00;;;;;17.47;66.60;101650.69;5054010;28;9226;-58
2021/12/31 05:20:21;;;;;;;;;1.00;1.00;;;;;17.45;66.72;101670.06;5053985;28;9006;-58
2021/12/31 05:22:47;;;;;;;;;2.00;2.00;;;;;17.41;66.64;101671.78;5054005;28;9126;-58
2021/12/31 05:25:12;;;;;;;;;2.00;0.67;;;;;17.40;66.58;101673.53;5053968;28;9014;-57
2021/12/31 05:27:38;;;;;;;;;1.67;1.67;;;;;17.39;66.70;101677.09;5053761;28;8780;-57
2021/12/31 05:30:04;;;;;;;;;2.33;1.00;;;;;17.39;66.84;101669.16;5053984;28;8796;-58
2021/12/31 05:32:30;;;;;;;;;1.00;1.00;;;;;17.42;66.63;101681.50;5053843;28;8830;-58
2021/12/31 05:34:55;;;;;;;;;2.00;2.00;;;;;17.36;66.84;101674.41;5053483;28;9120;-58
2021/12/31 05:37:24;;;;;;;;;2.00;1.67;;;;;17.39;66.74;101673.56;5053715;28;8812;-58
2021/12/31 05:39:49;;;;;;;;;1.00;1.00;;;;;17.40;66.92;101677.94;5053234;28;8788;-59
2021/12/31 05:42:15;;;;;;;;;2.33;2.33;;;;;17.36;66.76;101676.16;5053491;28;9335;-59
2021/12/31 05:44:40;;;;;;;;;1.00;1.00;;;;;17.38;66.93;101671.78;5053356;28;8795;-58
2021/12/31 05:47:06;;;;;;;;;0.33;0.33;;;;;17.39;66.74;101673.56;5053895;28;8810;-59
2021/12/31 05:49:31;;;;;;;;;0.00;0.00;;;;;17.36;66.62;101669.13;5053511;28;8879;-58
2021/12/31 05:51:57;;;;;;;;;1.00;1.00;;;;;17.39;66.76;101677.09;5053078;28;8812;-58
2021/12/31 05:54:22;;;;;;;;;1.00;1.00;;;;;17.40;66.66;101676.19;5053570;28;8780;-58
2021/12/31 05:56:48;;;;;;;;;1.00;1.00;;;;;17.44;66.72;101677.09;5053008;28;8797;-58
2021/12/31 05:59:13;;;;;;;;;1.00;1.00;;;;;17.41;66.40;101679.72;5053316;28;8775;-58
2021/12/31 06:01:38;;;;;;;;;1.67;1.67;;;;;17.39;66.46;101676.19;5052867;28;8788;-58
2021/12/31 06:04:03;;;;;;;;;1.00;1.00;;;;;17.38;66.75;101667.38;5053368;28;8764;-58
2021/12/31 06:06:29;;;;;;;;;2.00;2.00;;;;;17.37;66.59;101670.00;5053285;28;8838;-58
2021/12/31 06:08:57;;;;;;;;;2.00;2.00;;;;;17.40;66.33;101668.25;5052123;28;8802;-59
2021/12/31 06:11:22;;;;;;;;;2.00;1.00;;;;;17.38;66.46;101670.03;5053465;28;8938;-58
2021/12/31 06:13:55;;;;;;;;;2.00;2.00;;;;;17.39;66.52;101658.59;5052900;28;9085;-58
2021/12/31 06:16:20;;;;;;;;;1.00;1.00;;;;;17.40;66.49;101659.47;5052976;28;8819;-58
2021/12/31 06:18:48;;;;;;;;;1.00;1.00;;;;;17.46;66.59;101642.78;5053153;28;9123;-58
2021/12/31 06:21:14;;;;;;;;;2.00;1.00;;;;;17.42;66.49;101639.25;5053023;28;8773;-59
2021/12/31 06:23:39;;;;;;;;;1.00;1.00;;;;;17.39;66.70;101631.31;5052159;28;9063;-59
2021/12/31 06:26:11;;;;;;;;;1.00;1.00;;;;;17.35;66.45;101622.50;5053094;28;8799;-59
2021/12/31 06:28:36;;;;;;;;;1.00;1.00;;;;;17.37;66.59;101615.47;5053055;28;8800;-59
2021/12/31 06:31:04;;;;;;;;;2.00;2.00;;;;;17.35;66.66;101616.34;5052170;28;8973;-59
2021/12/31 06:33:29;;;;;;;;;1.33;1.33;;;;;17.37;66.58;101609.28;5053248;28;8772;-59
2021/12/31 06:35:54;;;;;;;;;1.00;1.00;;;;;17.37;66.74;101609.28;5052010;28;9138;-59
2021/12/31 06:38:20;;;;;;;;;1.00;1.00;;;;;17.38;66.54;101617.22;5052436;28;9547;-59
2021/12/31 06:40:45;;;;;;;;;2.00;1.00;;;;;17.38;66.39;101608.44;5052598;28;8804;-59
2021/12/31 06:43:11;;;;;;;;;1.00;1.00;;;;;17.46;66.14;101614.63;5052563;28;8862;-59
2021/12/31 06:45:36;;;;;;;;;0.67;0.67;;;;;17.37;66.30;101609.28;5052163;28;8768;-59
2021/12/31 06:48:02;;;;;;;;;2.00;2.00;;;;;17.35;66.46;101603.13;5052413;28;8895;-59
2021/12/31 06:50:28;;;;;;;;;1.00;1.00;;;;;17.42;66.56;101619.88;5052278;28;8876;-59
2021/12/31 06:52:53;;;;;;;;;0.67;0.67;;;;;17.37;66.45;101619.84;5051862;28;8943;-59
2021/12/31 06:55:18;;;;;;;;;0.67;0.67;;;;;17.45;66.55;101626.06;5052532;28;9485;-59
2021/12/31 06:57:46;;;;;;;;;1.00;1.00;;;;;17.40;66.66;101625.13;5052273;28;8792;-59
2021/12/31 07:00:17;;;;;;;;;1.00;1.00;;;;;17.42;66.34;101630.44;5052100;28;8772;-59
2021/12/31 07:02:43;;;;;;;;;1.00;1.00;;;;;17.38;66.33;101634.81;5052045;28;8957;-58
2021/12/31 07:05:08;;;;;;;;;1.00;1.00;;;;;17.37;66.18;101635.69;5051621;28;8940;-58
2021/12/31 07:07:33;;;;;;;;;0.00;0.00;;;;;17.37;66.57;101641.84;5052490;28;8796;-58
2021/12/31 07:09:59;;;;;;;;;1.00;1.00;;;;;17.44;66.26;101644.53;5051652;28;8927;-59
2021/12/31 07:12:27;;;;;;;;;1.00;1.00;;;;;17.39;66.29;101636.59;5051722;28;8831;-59
2021/12/31 07:14:52;;;;;;;;;2.00;1.00;;;;;17.40;66.44;101646.25;5052287;28;8768;-58
2021/12/31 07:17:17;;;;;;;;;1.00;1.00;;;;;17.44;66.12;101650.69;5051815;28;8929;-59
2021/12/31 07:19:43;;;;;;;;;1.00;1.00;;;;;17.40;66.09;101654.19;5049776;28;9630;-59
2021/12/31 07:22:09;;;;;;;;;1.67;1.67;;;;;17.38;66.39;101658.59;5051933;28;8784;-59
2021/12/31 07:24:34;;;;;;;;;1.00;1.00;;;;;17.37;66.35;101656.81;5051676;28;8799;-59
2021/12/31 07:26:59;;;;;;;;;2.00;2.00;;;;;17.38;66.28;101658.59;5051303;28;8799;-59
2021/12/31 07:29:27;;;;;;;;;1.00;1.00;;;;;17.39;66.27;101644.50;5051990;28;8784;-59
2021/12/31 07:31:52;;;;;;;;;1.33;1.33;;;;;17.43;65.95;101661.25;5051339;28;8835;-59
2021/12/31 07:34:17;;;;;;;;;1.00;1.00;;;;;17.42;66.13;101659.47;5051013;28;9017;-59
2021/12/31 07:36:43;;;;;;;;;3.00;1.00;;;;;17.39;65.98;101652.44;5051349;28;8836;-58
2021/12/31 07:39:10;;;;;;;;;1.00;1.00;;;;;17.35;66.27;101659.44;5051506;28;8795;-59
2021/12/31 07:41:35;;;;;;;;;2.00;1.00;;;;;17.36;66.53;101650.63;5051248;28;9003;-59
2021/12/31 07:44:01;;;;;;;;;2.00;2.00;;;;;17.36;66.33;101650.63;5051479;28;9226;-59
2021/12/31 07:46:26;;;;;;;;;2.00;2.00;;;;;17.32;66.45;101654.13;5051112;28;9598;-59
2021/12/31 07:48:51;;;;;;;;;0.33;0.33;;;;;17.27;66.35;101649.69;5050713;28;8795;-58
2021/12/31 07:51:17;;;;;;;;;2.00;2.00;;;;;17.38;66.27;101651.56;5051295;28;8843;-59
2021/12/31 07:53:43;;;;;;;;;1.33;1.00;;;;;17.44;65.98;101642.75;5051152;28;8804;-58
2021/12/31 07:56:08;;;;;;;;;2.00;2.00;;;;;17.36;65.95;101655.91;5050985;28;8784;-78
2021/12/31 07:58:33;;;;;;;;;1.00;1.00;;;;;17.37;66.35;101662.97;5051331;28;8791;-59
2021/12/31 08:00:58;;;;;;;;;0.67;0.67;;;;;17.45;65.97;101656.84;5049940;28;8793;-58
2021/12/31 08:03:26;;;;;;;;;1.00;1.00;;;;;17.46;66.08;101656.88;5050805;28;8811;-58
2021/12/31 08:05:51;;;;;;;;;1.00;1.00;;;;;17.56;65.59;101655.16;5043449;28;8827;-58
2021/12/31 08:08:17;;;;;;;;;0.00;0.00;;;;;17.46;66.00;101658.63;5049698;28;9139;-58
2021/12/31 08:10:42;;;;;;;;;1.00;1.00;;;;;17.45;66.09;101657.75;5050519;28;8796;-58
2021/12/31 08:13:11;;;;;;;;;0.33;0.33;;;;;17.38;65.85;101667.38;5050378;28;8789;-58
2021/12/31 08:15:37;;;;;;;;;2.00;1.00;;;;;17.39;66.33;101677.09;5048643;28;8816;-58
2021/12/31 08:18:02;;;;;;;;;0.33;0.33;;;;;17.39;66.05;101678.84;5050548;28;9196;-58
2021/12/31 08:20:28;;;;;;;;;2.00;1.00;;;;;17.39;66.11;101687.63;5050049;28;8804;-58
2021/12/31 08:22:53;;;;;;;;;0.00;0.00;;;;;17.40;65.92;101680.56;5050531;28;8779;-59
2021/12/31 08:25:19;;;;;;;;;1.67;1.67;;;;;17.47;65.80;101687.66;5049183;28;8780;-59
2021/12/31 08:27:44;;;;;;;;;1.67;1.67;;;;;17.44;66.05;101689.41;5050260;28;8789;-59
2021/12/31 08:30:11;;;;;;;;;0.00;0.00;;;;;17.37;66.17;101684.09;5050254;28;8919;-59
2021/12/31 08:32:37;;;;;;;;;0.67;0.67;;;;;17.38;65.82;101674.41;5050541;28;8832;-58
2021/12/31 08:35:06;;;;;;;;;1.67;1.67;;;;;17.43;66.11;101671.81;5048425;28;9707;-58
2021/12/31 08:37:32;;;;;;;;;1.33;1.33;;;;;17.42;65.90;101665.66;5050226;28;11557;-58
2021/12/31 08:39:57;;;;;;;;;1.00;1.00;;;;;17.42;65.78;101670.03;5050327;28;9042;-58
2021/12/31 08:42:23;;;;;;;;;1.00;1.00;;;;;17.42;66.16;101665.66;5050740;28;8789;-58
2021/12/31 08:44:48;;;;;;;;;2.00;1.00;;;;;17.42;65.62;101667.41;5043067;28;8822;-58
2021/12/31 08:47:14;;;;;;;;;0.33;0.33;;;;;17.45;65.75;101686.78;5050708;28;8788;-58
2021/12/31 08:49:42;;;;;;;;;0.00;0.00;;;;;17.40;66.08;101678.81;5050629;28;8788;-58
2021/12/31 08:52:07;;;;;;;;;1.33;1.33;;;;;17.47;65.66;101692.94;5050136;28;8832;-58
2021/12/31 08:54:33;;;;;;;;;0.33;0.33;;;;;17.44;65.64;101682.38;5049629;28;8972;-58
2021/12/31 08:57:00;;;;;;;;;0.33;0.33;;;;;17.45;65.96;101684.16;5050872;28;8773;-58
2021/12/31 08:59:25;;;;;;;;;1.00;1.00;;;;;17.44;65.53;101660.34;5050643;28;9500;-59
2021/12/31 09:01:50;;;;;;;;;0.00;0.00;;;;;17.44;65.74;101666.53;5044432;28;9028;-58
2021/12/31 09:04:16;;;;;;;;;1.00;1.00;;;;;17.42;65.58;101680.59;5049661;28;8773;-59
2021/12/31 09:06:41;;;;;;;;;0.00;0.00;;;;;17.45;65.63;101692.06;5049649;28;8753;-59
2021/12/31 09:09:06;;;;;;;;;0.67;0.67;;;;;17.45;65.73;101684.16;5050607;28;9495;-59
2021/12/31 09:11:32;;;;;;;;;2.00;1.00;;;;;17.49;65.73;101679.75;5049416;28;8824;-59
2021/12/31 09:13:58;;;;;;;;;4.00;3.00;;;;;17.48;66.21;101686.78;5050051;28;8769;-59
2021/12/31 09:16:23;;;;;;;;;4.33;4.00;;;;;17.56;67.25;101671.91;5050564;28;8890;-58
2021/12/31 09:18:48;;;;;;;;;8.00;6.00;;;;;17.63;67.87;101684.28;5049828;28;8799;-59
2021/12/31 09:21:17;;;;;;;;;7.33;5.33;;;;;17.65;68.43;101702.81;5050465;28;8776;-59
2021/12/31 09:23:44;;;;;;;;;5.00;4.25;;;;;17.69;69.39;101721.31;5050049;28;8800;-58
2021/12/31 09:26:09;;;;;;;;;4.33;4.33;;;;;17.70;70.10;101715.16;5050014;28;9389;-58
2021/12/31 09:28:34;;;;;;;;;5.33;5.00;;;;;17.70;70.97;101731.00;5050238;28;9419;-58
2021/12/31 09:31:05;;;;;;;;;9.00;7.00;;;;;17.70;71.40;101730.09;5049904;28;8832;-58
2021/12/31 09:33:30;;;;;;;;;4.67;4.00;;;;;17.70;71.99;101715.16;5049928;28;8768;-58
2021/12/31 09:35:55;;;;;;;;;8.00;5.00;;;;;17.71;72.70;101695.78;5050123;28;9124;-59
2021/12/31 09:38:21;;;;;;;;;6.00;5.00;;;;;17.70;72.94;101709.84;5050142;28;9548;-59
2021/12/31 09:40:47;;;;;;;;;7.67;4.67;;;;;17.72;72.90;101702.84;5049403;28;8804;-59
2021/12/31 09:43:13;;;;;;;;;6.67;4.00;;;;;17.72;73.42;101718.69;5050469;28;8780;-58
2021/12/31 09:45:41;;;;;;;;;4.33;4.33;;;;;17.70;73.21;101723.06;5053432;28;9238;-58
2021/12/31 09:48:10;;;;;;;;;3.00;3.00;;;;;17.73;72.88;101736.28;5053384;28;8828;-59
2021/12/31 09:50:40;;;;;;;;;4.00;4.00;;;;;17.75;72.90;101746.88;5051436;28;9378;-58
2021/12/31 09:53:06;;;;;;;;;5.00;4.33;;;;;17.74;73.10;101743.34;5053377;28;9266;-58
2021/12/31 09:55:36;;;;;;;;;5.00;3.33;;;;;17.76;72.74;101727.53;5052824;28;9191;-58
2021/12/31 09:58:01;;;;;;;;;4.00;4.00;;;;;17.71;72.87;101722.19;5052375;28;9956;-57
2021/12/31 10:00:29;;;;;;;;;4.33;4.00;;;;;17.77;72.53;101732.78;5051222;28;9303;-59
2021/12/31 10:03:26;;;;;;;;;4.33;3.33;;;;;17.79;71.78;101720.50;5052858;28;8784;-58
2021/12/31 10:05:56;;;;;;;;;2.00;2.00;;;;;17.74;72.15;101713.41;5052277;28;9293;-58
2021/12/31 10:08:30;;;;;;;;;5.00;5.00;;;;;17.70;72.17;101717.78;5053052;28;9254;-58
2021/12/31 10:11:17;;;;;;;;;4.00;4.00;;;;;17.71;71.92;101723.94;5053067;28;9297;-60
2021/12/31 10:13:47;;;;;;;;;6.00;4.67;;;;;17.65;71.94;101747.69;5052304;28;10010;-58
2021/12/31 10:16:22;;;;;;;;;3.67;3.67;;;;;17.64;72.10;101749.44;5052674;28;9243;-59
2021/12/31 10:18:48;;;;;;;;;4.33;3.00;;;;;17.65;72.09;101748.59;5052748;28;9180;-58
2021/12/31 10:21:19;;;;;;;;;2.33;2.33;;;;;17.63;71.96;101736.22;5053283;28;9250;-59
2021/12/31 10:23:44;;;;;;;;;3.33;3.00;;;;;17.65;71.81;101726.56;5052354;28;9202;-58
2021/12/31 10:26:13;;;;;;;;;5.00;4.00;;;;;17.65;71.98;101690.47;5051924;28;9119;-59
2021/12/31 10:28:59;;;;;;;;;2.33;2.33;;;;;17.63;71.87;101683.41;5044476;28;8782;-58
2021/12/31 10:31:27;;;;;;;;;6.67;4.00;;;;;17.57;71.80;101670.19;5052669;28;9165;-59
2021/12/31 10:33:52;;;;;;;;;5.33;5.33;;;;;17.62;71.52;101644.69;5051685;28;9110;-58
2021/12/31 10:36:32;;;;;;;;;4.00;3.00;;;;;17.58;71.00;101598.91;5052327;28;9213;-58
2021/12/31 10:39:15;;;;;;;;;4.33;3.67;;;;;17.60;71.41;101612.97;5051952;28;8784;-58
2021/12/31 10:41:44;;;;;;;;;0.00;0.00;;;;;17.64;70.87;101622.69;5051535;28;9779;-59
2021/12/31 10:44:09;;;;;;;;;2.00;2.00;;;;;17.70;70.54;101638.56;5049097;28;9240;-59
2021/12/31 10:46:34;;;;;;;;;4.00;3.00;;;;;17.72;70.20;101668.50;5049352;28;9159;-60
2021/12/31 10:49:06;;;;;;;;;3.00;3.00;;;;;17.73;70.17;101672.03;5052028;28;8799;-59
2021/12/31 10:51:42;;;;;;;;;3.33;3.33;;;;;17.83;70.27;101687.06;5052108;28;8886;-59
2021/12/31 10:54:17;;;;;;;;;1.00;1.00;;;;;18.01;69.56;101673.94;5054409;28;10430;-59
2021/12/31 10:56:42;;;;;;;;;3.33;3.00;;;;;18.07;69.21;101673.09;5070552;28;9157;-58
2021/12/31 10:59:07;;;;;;;;;2.00;2.00;;;;;18.09;68.77;101676.59;5071505;28;9123;-59
2021/12/31 11:01:35;;;;;;;;;2.33;2.00;;;;;18.11;68.62;101685.44;5061396;28;10769;-58
2021/12/31 11:04:01;;;;;;;;;1.33;1.33;;;;;18.08;68.64;101678.34;5058156;28;10709;-58
2021/12/31 11:06:26;;;;;;;;;2.67;2.33;;;;;18.10;68.33;101688.94;5051720;28;9308;-59
2021/12/31 11:08:55;;;;;;;;;2.00;2.00;;;;;18.07;68.69;101683.66;5050415;28;8819;-59
2021/12/31 11:11:22;;;;;;;;;4.00;3.00;;;;;18.07;68.46;101689.78;5056065;28;10722;-59
2021/12/31 11:13:49;;;;;;;;;1.00;1.00;;;;;18.04;68.55;101691.53;5070504;28;9135;-59
2021/12/31 11:16:14;;;;;;;;;1.00;1.00;;;;;18.00;68.72;101690.66;5053947;28;10639;-59
2021/12/31 11:18:40;;;;;;;;;2.00;2.00;;;;;18.01;68.53;101697.72;5030255;28;9110;-59
2021/12/31 11:21:11;;;;;;;;;3.00;3.00;;;;;18.06;68.69;101684.53;5031751;28;8785;-59
2021/12/31 11:23:36;;;;;;;;;2.33;2.33;;;;;18.07;68.28;101681.88;5031717;28;9132;-58
2021/12/31 11:26:07;;;;;;;;;2.00;2.00;;;;;18.10;68.26;101688.94;5030596;28;9151;-58
2021/12/31 11:28:36;;;;;;;;;1.67;1.67;;;;;18.09;68.16;101685.41;5032131;28;8790;-59
2021/12/31 11:31:16;;;;;;;;;2.00;2.00;;;;;18.07;68.28;101692.44;5037436;28;10801;-59
2021/12/31 11:33:45;;;;;;;;;1.00;1.00;;;;;18.01;68.33;101688.91;5051012;28;9167;-59
2021/12/31 11:36:11;;;;;;;;;2.00;2.00;;;;;18.05;68.27;101698.59;5046918;28;10934;-59